sensor_id;sensor_type;location;lat;lon;timestamp;P1;durP1;ratioP1;P2;durP2;ratioP2
22103;SDS011;11218;48.886;9.426;2023-04-25T00:01:49;36.80;;;7.82;;
22103;SDS011;11218;48.886;9.426;2023-04-25T00:04:21;37.45;;;7.60;;
22103;SDS011;11218;48.886;9.426;2023-04-25T00:06:49;43.72;;;8.82;;
22103;SDS011;11218;48.886;9.426;2023-04-25T00:09:18;32.58;;;7.25;;
22103;SDS011;11218;48.886;9.426;2023-04-25T00:11:48;33.95;;;7.32;;
22103;SDS011;11218;48.886;9.426;2023-04-25T00:14:16;29.40;;;6.82;;
22103;SDS011;11218;48.886;9.426;2023-04-25T00:16:44;32.58;;;7.10;;
22103;SDS011;11218;48.886;9.426;2023-04-25T00:19:12;24.67;;;6.72;;
22103;SDS011;11218;48.886;9.426;2023-04-25T00:21:40;33.47;;;7.30;;
22103;SDS011;11218;48.886;9.426;2023-04-25T00:24:08;32.85;;;7.13;;
22103;SDS011;11218;48.886;9.426;2023-04-25T00:26:36;39.33;;;7.85;;
22103;SDS011;11218;48.886;9.426;2023-04-25T00:29:07;30.55;;;7.18;;
22103;SDS011;11218;48.886;9.426;2023-04-25T00:31:37;32.58;;;7.40;;
22103;SDS011;11218;48.886;9.426;2023-04-25T00:34:05;40.13;;;8.20;;
22103;SDS011;11218;48.886;9.426;2023-04-25T00:36:34;30.30;;;6.95;;
22103;SDS011;11218;48.886;9.426;2023-04-25T00:39:02;42.20;;;8.40;;
22103;SDS011;11218;48.886;9.426;2023-04-25T00:41:31;29.50;;;6.57;;
22103;SDS011;11218;48.886;9.426;2023-04-25T00:44:00;40.65;;;8.30;;
22103;SDS011;11218;48.886;9.426;2023-04-25T00:46:31;24.65;;;5.65;;
22103;SDS011;11218;48.886;9.426;2023-04-25T00:48:59;35.65;;;7.47;;
22103;SDS011;11218;48.886;9.426;2023-04-25T00:51:28;33.00;;;7.00;;
22103;SDS011;11218;48.886;9.426;2023-04-25T00:53:57;36.17;;;7.28;;
22103;SDS011;11218;48.886;9.426;2023-04-25T00:56:25;30.30;;;6.63;;
22103;SDS011;11218;48.886;9.426;2023-04-25T00:58:53;36.90;;;7.40;;
22103;SDS011;11218;48.886;9.426;2023-04-25T01:01:22;32.38;;;7.05;;
22103;SDS011;11218;48.886;9.426;2023-04-25T01:03:53;38.45;;;7.78;;
22103;SDS011;11218;48.886;9.426;2023-04-25T01:06:22;29.40;;;6.25;;
22103;SDS011;11218;48.886;9.426;2023-04-25T01:08:51;31.02;;;6.70;;
22103;SDS011;11218;48.886;9.426;2023-04-25T01:11:19;31.90;;;6.57;;
22103;SDS011;11218;48.886;9.426;2023-04-25T01:13:47;27.95;;;6.45;;
22103;SDS011;11218;48.886;9.426;2023-04-25T01:16:16;23.92;;;5.40;;
22103;SDS011;11218;48.886;9.426;2023-04-25T01:18:47;30.17;;;6.25;;
22103;SDS011;11218;48.886;9.426;2023-04-25T01:21:18;31.30;;;6.47;;
22103;SDS011;11218;48.886;9.426;2023-04-25T01:23:47;42.40;;;7.85;;
22103;SDS011;11218;48.886;9.426;2023-04-25T01:26:15;30.45;;;6.55;;
22103;SDS011;11218;48.886;9.426;2023-04-25T01:28:44;31.70;;;6.78;;
22103;SDS011;11218;48.886;9.426;2023-04-25T01:31:13;36.42;;;7.13;;
22103;SDS011;11218;48.886;9.426;2023-04-25T01:33:43;33.15;;;6.97;;
22103;SDS011;11218;48.886;9.426;2023-04-25T01:36:11;28.83;;;6.40;;
22103;SDS011;11218;48.886;9.426;2023-04-25T01:38:42;30.17;;;6.18;;
22103;SDS011;11218;48.886;9.426;2023-04-25T01:41:10;37.67;;;7.32;;
22103;SDS011;11218;48.886;9.426;2023-04-25T01:43:39;37.65;;;7.65;;
22103;SDS011;11218;48.886;9.426;2023-04-25T01:46:07;38.20;;;7.35;;
22103;SDS011;11218;48.886;9.426;2023-04-25T01:48:36;27.23;;;5.72;;
22103;SDS011;11218;48.886;9.426;2023-04-25T01:51:04;39.95;;;7.88;;
22103;SDS011;11218;48.886;9.426;2023-04-25T01:53:32;28.67;;;5.80;;
22103;SDS011;11218;48.886;9.426;2023-04-25T01:56:03;38.75;;;7.53;;
22103;SDS011;11218;48.886;9.426;2023-04-25T01:58:31;20.80;;;4.72;;
22103;SDS011;11218;48.886;9.426;2023-04-25T02:01:00;39.75;;;7.53;;
22103;SDS011;11218;48.886;9.426;2023-04-25T02:03:29;25.05;;;5.50;;
22103;SDS011;11218;48.886;9.426;2023-04-25T02:06:01;31.00;;;5.90;;
22103;SDS011;11218;48.886;9.426;2023-04-25T02:08:29;37.13;;;7.22;;
22103;SDS011;11218;48.886;9.426;2023-04-25T02:10:57;32.60;;;6.68;;
22103;SDS011;11218;48.886;9.426;2023-04-25T02:13:27;35.00;;;7.18;;
22103;SDS011;11218;48.886;9.426;2023-04-25T02:15:55;25.98;;;5.85;;
22103;SDS011;11218;48.886;9.426;2023-04-25T02:18:25;29.50;;;6.32;;
22103;SDS011;11218;48.886;9.426;2023-04-25T02:20:53;23.73;;;5.38;;
22103;SDS011;11218;48.886;9.426;2023-04-25T02:23:22;39.38;;;7.45;;
22103;SDS011;11218;48.886;9.426;2023-04-25T02:25:50;28.80;;;6.13;;
22103;SDS011;11218;48.886;9.426;2023-04-25T02:28:19;28.33;;;6.15;;
22103;SDS011;11218;48.886;9.426;2023-04-25T02:30:48;21.88;;;5.20;;
22103;SDS011;11218;48.886;9.426;2023-04-25T02:33:16;29.20;;;6.32;;
22103;SDS011;11218;48.886;9.426;2023-04-25T02:35:44;36.00;;;7.32;;
22103;SDS011;11218;48.886;9.426;2023-04-25T02:38:12;22.75;;;5.15;;
22103;SDS011;11218;48.886;9.426;2023-04-25T02:40:41;27.67;;;6.03;;
22103;SDS011;11218;48.886;9.426;2023-04-25T02:43:09;27.67;;;5.90;;
22103;SDS011;11218;48.886;9.426;2023-04-25T02:45:37;32.65;;;7.35;;
22103;SDS011;11218;48.886;9.426;2023-04-25T02:48:06;48.83;;;8.77;;
22103;SDS011;11218;48.886;9.426;2023-04-25T02:50:35;33.22;;;6.93;;
22103;SDS011;11218;48.886;9.426;2023-04-25T02:53:03;35.15;;;7.63;;
22103;SDS011;11218;48.886;9.426;2023-04-25T02:55:32;30.02;;;6.03;;
22103;SDS011;11218;48.886;9.426;2023-04-25T02:58:00;31.50;;;6.70;;
22103;SDS011;11218;48.886;9.426;2023-04-25T03:00:28;22.02;;;5.28;;
22103;SDS011;11218;48.886;9.426;2023-04-25T03:02:56;31.08;;;7.18;;
22103;SDS011;11218;48.886;9.426;2023-04-25T03:05:26;27.08;;;6.18;;
22103;SDS011;11218;48.886;9.426;2023-04-25T03:07:54;30.55;;;6.85;;
22103;SDS011;11218;48.886;9.426;2023-04-25T03:10:22;30.13;;;6.97;;
22103;SDS011;11218;48.886;9.426;2023-04-25T03:12:51;31.30;;;7.03;;
22103;SDS011;11218;48.886;9.426;2023-04-25T03:15:19;28.85;;;6.75;;
22103;SDS011;11218;48.886;9.426;2023-04-25T03:17:47;28.88;;;6.38;;
22103;SDS011;11218;48.886;9.426;2023-04-25T03:20:15;26.63;;;6.72;;
22103;SDS011;11218;48.886;9.426;2023-04-25T03:22:44;23.83;;;6.28;;
22103;SDS011;11218;48.886;9.426;2023-04-25T03:25:12;26.17;;;6.28;;
22103;SDS011;11218;48.886;9.426;2023-04-25T03:27:40;32.53;;;7.10;;
22103;SDS011;11218;48.886;9.426;2023-04-25T03:30:08;36.17;;;7.68;;
22103;SDS011;11218;48.886;9.426;2023-04-25T03:32:37;29.95;;;6.75;;
22103;SDS011;11218;48.886;9.426;2023-04-25T03:35:05;34.47;;;7.55;;
22103;SDS011;11218;48.886;9.426;2023-04-25T03:37:34;27.80;;;6.25;;
22103;SDS011;11218;48.886;9.426;2023-04-25T03:40:05;37.40;;;7.68;;
22103;SDS011;11218;48.886;9.426;2023-04-25T03:42:34;31.52;;;7.38;;
22103;SDS011;11218;48.886;9.426;2023-04-25T03:45:02;30.38;;;6.97;;
22103;SDS011;11218;48.886;9.426;2023-04-25T03:47:31;32.35;;;7.22;;
22103;SDS011;11218;48.886;9.426;2023-04-25T03:49:59;33.40;;;7.20;;
22103;SDS011;11218;48.886;9.426;2023-04-25T03:52:28;27.98;;;6.75;;
22103;SDS011;11218;48.886;9.426;2023-04-25T03:54:56;32.20;;;7.35;;
22103;SDS011;11218;48.886;9.426;2023-04-25T03:57:27;33.50;;;7.30;;
22103;SDS011;11218;48.886;9.426;2023-04-25T03:59:55;25.75;;;6.43;;
22103;SDS011;11218;48.886;9.426;2023-04-25T04:02:23;28.27;;;6.47;;
22103;SDS011;11218;48.886;9.426;2023-04-25T04:04:51;26.15;;;6.75;;
22103;SDS011;11218;48.886;9.426;2023-04-25T04:07:20;29.55;;;7.13;;
22103;SDS011;11218;48.886;9.426;2023-04-25T04:09:48;27.45;;;6.75;;
22103;SDS011;11218;48.886;9.426;2023-04-25T04:12:16;33.08;;;7.40;;
22103;SDS011;11218;48.886;9.426;2023-04-25T04:14:46;33.78;;;7.38;;
22103;SDS011;11218;48.886;9.426;2023-04-25T04:17:14;36.58;;;7.78;;
22103;SDS011;11218;48.886;9.426;2023-04-25T04:19:42;33.22;;;7.32;;
22103;SDS011;11218;48.886;9.426;2023-04-25T04:22:10;35.63;;;7.60;;
22103;SDS011;11218;48.886;9.426;2023-04-25T04:24:38;30.65;;;7.15;;
22103;SDS011;11218;48.886;9.426;2023-04-25T04:27:06;35.72;;;8.15;;
22103;SDS011;11218;48.886;9.426;2023-04-25T04:29:34;26.05;;;6.28;;
22103;SDS011;11218;48.886;9.426;2023-04-25T04:32:04;30.38;;;7.30;;
22103;SDS011;11218;48.886;9.426;2023-04-25T04:34:32;33.53;;;7.65;;
22103;SDS011;11218;48.886;9.426;2023-04-25T04:37:01;27.88;;;6.93;;
22103;SDS011;11218;48.886;9.426;2023-04-25T04:39:29;31.08;;;7.32;;
22103;SDS011;11218;48.886;9.426;2023-04-25T04:41:57;38.88;;;8.35;;
22103;SDS011;11218;48.886;9.426;2023-04-25T04:44:27;43.30;;;9.88;;
22103;SDS011;11218;48.886;9.426;2023-04-25T04:46:59;35.45;;;8.55;;
22103;SDS011;11218;48.886;9.426;2023-04-25T04:49:28;42.38;;;8.48;;
22103;SDS011;11218;48.886;9.426;2023-04-25T04:51:56;35.33;;;8.68;;
22103;SDS011;11218;48.886;9.426;2023-04-25T04:54:26;34.35;;;8.45;;
22103;SDS011;11218;48.886;9.426;2023-04-25T04:56:54;34.25;;;8.13;;
22103;SDS011;11218;48.886;9.426;2023-04-25T04:59:22;35.72;;;8.35;;
22103;SDS011;11218;48.886;9.426;2023-04-25T05:01:52;38.78;;;8.88;;
22103;SDS011;11218;48.886;9.426;2023-04-25T05:04:20;38.38;;;8.45;;
22103;SDS011;11218;48.886;9.426;2023-04-25T05:06:50;91.40;;;16.25;;
22103;SDS011;11218;48.886;9.426;2023-04-25T05:09:18;40.22;;;9.82;;
22103;SDS011;11218;48.886;9.426;2023-04-25T05:11:46;54.05;;;11.32;;
22103;SDS011;11218;48.886;9.426;2023-04-25T05:14:14;30.27;;;8.13;;
22103;SDS011;11218;48.886;9.426;2023-04-25T05:16:44;31.65;;;8.05;;
22103;SDS011;11218;48.886;9.426;2023-04-25T05:19:12;29.25;;;8.18;;
22103;SDS011;11218;48.886;9.426;2023-04-25T05:21:40;30.95;;;8.38;;
22103;SDS011;11218;48.886;9.426;2023-04-25T05:24:11;38.15;;;9.25;;
22103;SDS011;11218;48.886;9.426;2023-04-25T05:26:39;42.15;;;9.32;;
22103;SDS011;11218;48.886;9.426;2023-04-25T05:29:08;27.63;;;7.82;;
22103;SDS011;11218;48.886;9.426;2023-04-25T05:31:36;31.52;;;8.65;;
22103;SDS011;11218;48.886;9.426;2023-04-25T05:34:04;36.50;;;9.52;;
22103;SDS011;11218;48.886;9.426;2023-04-25T05:36:33;34.00;;;8.68;;
22103;SDS011;11218;48.886;9.426;2023-04-25T05:39:01;38.88;;;9.80;;
22103;SDS011;11218;48.886;9.426;2023-04-25T05:41:32;35.40;;;8.88;;
22103;SDS011;11218;48.886;9.426;2023-04-25T05:44:00;36.80;;;9.57;;
22103;SDS011;11218;48.886;9.426;2023-04-25T05:46:28;42.15;;;10.25;;
22103;SDS011;11218;48.886;9.426;2023-04-25T05:48:57;41.15;;;10.35;;
22103;SDS011;11218;48.886;9.426;2023-04-25T05:51:25;40.33;;;10.32;;
22103;SDS011;11218;48.886;9.426;2023-04-25T05:53:53;40.65;;;9.57;;
22103;SDS011;11218;48.886;9.426;2023-04-25T05:56:22;54.70;;;11.52;;
22103;SDS011;11218;48.886;9.426;2023-04-25T05:58:51;32.22;;;8.80;;
22103;SDS011;11218;48.886;9.426;2023-04-25T06:01:19;36.63;;;8.98;;
22103;SDS011;11218;48.886;9.426;2023-04-25T06:03:48;33.63;;;8.90;;
22103;SDS011;11218;48.886;9.426;2023-04-25T06:06:19;37.47;;;9.88;;
22103;SDS011;11218;48.886;9.426;2023-04-25T06:08:47;36.78;;;9.50;;
22103;SDS011;11218;48.886;9.426;2023-04-25T06:11:15;43.30;;;10.38;;
22103;SDS011;11218;48.886;9.426;2023-04-25T06:13:43;38.45;;;9.73;;
22103;SDS011;11218;48.886;9.426;2023-04-25T06:16:13;41.58;;;10.48;;
22103;SDS011;11218;48.886;9.426;2023-04-25T06:18:41;32.50;;;9.18;;
22103;SDS011;11218;48.886;9.426;2023-04-25T06:21:09;39.65;;;10.30;;
22103;SDS011;11218;48.886;9.426;2023-04-25T06:23:37;40.45;;;10.05;;
22103;SDS011;11218;48.886;9.426;2023-04-25T06:26:06;24.30;;;8.18;;
22103;SDS011;11218;48.886;9.426;2023-04-25T06:28:34;32.80;;;9.65;;
22103;SDS011;11218;48.886;9.426;2023-04-25T06:31:02;38.80;;;10.18;;
22103;SDS011;11218;48.886;9.426;2023-04-25T06:33:32;32.33;;;9.98;;
22103;SDS011;11218;48.886;9.426;2023-04-25T06:36:00;29.75;;;8.90;;
22103;SDS011;11218;48.886;9.426;2023-04-25T06:38:28;50.33;;;12.00;;
22103;SDS011;11218;48.886;9.426;2023-04-25T06:40:57;43.58;;;10.45;;
22103;SDS011;11218;48.886;9.426;2023-04-25T06:43:25;40.22;;;9.38;;
22103;SDS011;11218;48.886;9.426;2023-04-25T06:45:54;37.70;;;9.38;;
22103;SDS011;11218;48.886;9.426;2023-04-25T06:48:22;37.40;;;9.07;;
22103;SDS011;11218;48.886;9.426;2023-04-25T06:50:51;30.83;;;8.23;;
22103;SDS011;11218;48.886;9.426;2023-04-25T06:53:19;33.90;;;8.77;;
22103;SDS011;11218;48.886;9.426;2023-04-25T06:55:48;26.70;;;7.40;;
22103;SDS011;11218;48.886;9.426;2023-04-25T06:58:16;50.78;;;11.23;;
22103;SDS011;11218;48.886;9.426;2023-04-25T07:00:45;46.85;;;10.50;;
22103;SDS011;11218;48.886;9.426;2023-04-25T07:03:13;48.42;;;11.45;;
22103;SDS011;11218;48.886;9.426;2023-04-25T07:05:42;47.92;;;11.38;;
22103;SDS011;11218;48.886;9.426;2023-04-25T07:08:14;45.00;;;11.55;;
22103;SDS011;11218;48.886;9.426;2023-04-25T07:10:43;47.10;;;10.75;;
22103;SDS011;11218;48.886;9.426;2023-04-25T07:13:15;51.78;;;11.95;;
22103;SDS011;11218;48.886;9.426;2023-04-25T07:15:43;37.63;;;10.10;;
22103;SDS011;11218;48.886;9.426;2023-04-25T07:18:11;48.97;;;11.50;;
22103;SDS011;11218;48.886;9.426;2023-04-25T07:20:40;44.20;;;11.05;;
22103;SDS011;11218;48.886;9.426;2023-04-25T07:23:08;33.10;;;9.38;;
22103;SDS011;11218;48.886;9.426;2023-04-25T07:25:42;37.80;;;10.55;;
22103;SDS011;11218;48.886;9.426;2023-04-25T07:28:10;35.83;;;9.90;;
22103;SDS011;11218;48.886;9.426;2023-04-25T07:30:38;41.13;;;10.45;;
22103;SDS011;11218;48.886;9.426;2023-04-25T07:33:07;49.65;;;12.10;;
22103;SDS011;11218;48.886;9.426;2023-04-25T07:35:35;52.63;;;12.43;;
22103;SDS011;11218;48.886;9.426;2023-04-25T07:38:03;39.17;;;11.07;;
22103;SDS011;11218;48.886;9.426;2023-04-25T07:40:32;43.47;;;11.23;;
22103;SDS011;11218;48.886;9.426;2023-04-25T07:43:03;43.63;;;10.88;;
22103;SDS011;11218;48.886;9.426;2023-04-25T07:45:31;43.13;;;11.07;;
22103;SDS011;11218;48.886;9.426;2023-04-25T07:47:59;47.78;;;11.85;;
22103;SDS011;11218;48.886;9.426;2023-04-25T07:50:27;46.72;;;11.48;;
22103;SDS011;11218;48.886;9.426;2023-04-25T07:52:55;40.97;;;11.07;;
22103;SDS011;11218;48.886;9.426;2023-04-25T07:55:23;47.22;;;11.60;;
22103;SDS011;11218;48.886;9.426;2023-04-25T07:57:51;43.13;;;11.40;;
22103;SDS011;11218;48.886;9.426;2023-04-25T08:00:21;46.88;;;11.68;;
22103;SDS011;11218;48.886;9.426;2023-04-25T08:02:49;50.88;;;12.18;;
22103;SDS011;11218;48.886;9.426;2023-04-25T08:05:18;60.13;;;12.95;;
22103;SDS011;11218;48.886;9.426;2023-04-25T08:07:49;59.70;;;13.68;;
22103;SDS011;11218;48.886;9.426;2023-04-25T08:10:17;63.35;;;14.43;;
22103;SDS011;11218;48.886;9.426;2023-04-25T08:12:45;52.40;;;13.05;;
22103;SDS011;11218;48.886;9.426;2023-04-25T08:15:13;45.15;;;11.82;;
22103;SDS011;11218;48.886;9.426;2023-04-25T08:17:43;44.97;;;11.70;;
22103;SDS011;11218;48.886;9.426;2023-04-25T08:20:12;40.10;;;11.00;;
22103;SDS011;11218;48.886;9.426;2023-04-25T08:22:40;57.75;;;13.93;;
22103;SDS011;11218;48.886;9.426;2023-04-25T08:25:08;59.38;;;14.52;;
22103;SDS011;11218;48.886;9.426;2023-04-25T08:27:36;53.33;;;13.10;;
22103;SDS011;11218;48.886;9.426;2023-04-25T08:30:06;57.05;;;14.10;;
22103;SDS011;11218;48.886;9.426;2023-04-25T08:32:35;48.40;;;13.20;;
22103;SDS011;11218;48.886;9.426;2023-04-25T08:35:07;37.53;;;10.98;;
22103;SDS011;11218;48.886;9.426;2023-04-25T08:37:36;51.83;;;12.93;;
22103;SDS011;11218;48.886;9.426;2023-04-25T08:40:05;42.08;;;10.70;;
22103;SDS011;11218;48.886;9.426;2023-04-25T08:42:36;43.97;;;11.20;;
22103;SDS011;11218;48.886;9.426;2023-04-25T08:45:06;36.72;;;10.88;;
22103;SDS011;11218;48.886;9.426;2023-04-25T08:47:35;41.65;;;10.98;;
22103;SDS011;11218;48.886;9.426;2023-04-25T08:50:09;38.65;;;10.70;;
22103;SDS011;11218;48.886;9.426;2023-04-25T08:52:54;40.38;;;10.88;;
22103;SDS011;11218;48.886;9.426;2023-04-25T08:55:24;36.60;;;10.57;;
22103;SDS011;11218;48.886;9.426;2023-04-25T08:57:54;38.45;;;10.07;;
22103;SDS011;11218;48.886;9.426;2023-04-25T09:00:25;45.22;;;11.68;;
22103;SDS011;11218;48.886;9.426;2023-04-25T09:02:54;42.95;;;11.60;;
22103;SDS011;11218;48.886;9.426;2023-04-25T09:05:25;51.25;;;13.32;;
22103;SDS011;11218;48.886;9.426;2023-04-25T09:07:55;42.60;;;11.07;;
22103;SDS011;11218;48.886;9.426;2023-04-25T09:10:25;44.72;;;12.27;;
22103;SDS011;11218;48.886;9.426;2023-04-25T09:13:04;44.53;;;11.52;;
22103;SDS011;11218;48.886;9.426;2023-04-25T09:15:46;41.78;;;10.55;;
22103;SDS011;11218;48.886;9.426;2023-04-25T09:18:22;48.70;;;11.82;;
22103;SDS011;11218;48.886;9.426;2023-04-25T09:20:58;52.28;;;13.70;;
22103;SDS011;11218;48.886;9.426;2023-04-25T09:23:40;42.65;;;10.77;;
22103;SDS011;11218;48.886;9.426;2023-04-25T09:26:09;41.30;;;10.68;;
22103;SDS011;11218;48.886;9.426;2023-04-25T09:28:41;35.88;;;9.93;;
22103;SDS011;11218;48.886;9.426;2023-04-25T09:31:20;45.70;;;11.88;;
22103;SDS011;11218;48.886;9.426;2023-04-25T09:33:52;38.47;;;11.40;;
22103;SDS011;11218;48.886;9.426;2023-04-25T09:36:30;39.63;;;11.75;;
22103;SDS011;11218;48.886;9.426;2023-04-25T09:39:03;33.38;;;9.85;;
22103;SDS011;11218;48.886;9.426;2023-04-25T09:41:46;39.80;;;11.05;;
22103;SDS011;11218;48.886;9.426;2023-04-25T09:44:19;41.08;;;11.55;;
22103;SDS011;11218;48.886;9.426;2023-04-25T09:46:52;39.92;;;10.27;;
22103;SDS011;11218;48.886;9.426;2023-04-25T09:49:22;33.08;;;10.68;;
22103;SDS011;11218;48.886;9.426;2023-04-25T09:52:30;44.28;;;11.93;;
22103;SDS011;11218;48.886;9.426;2023-04-25T09:55:06;39.90;;;10.85;;
22103;SDS011;11218;48.886;9.426;2023-04-25T09:57:50;38.83;;;10.68;;
22103;SDS011;11218;48.886;9.426;2023-04-25T10:01:23;37.28;;;10.43;;
22103;SDS011;11218;48.886;9.426;2023-04-25T10:03:57;45.58;;;12.00;;
22103;SDS011;11218;48.886;9.426;2023-04-25T10:06:28;52.97;;;12.52;;
22103;SDS011;11218;48.886;9.426;2023-04-25T10:09:24;30.58;;;10.20;;
22103;SDS011;11218;48.886;9.426;2023-04-25T10:11:56;34.67;;;10.55;;
22103;SDS011;11218;48.886;9.426;2023-04-25T10:14:26;50.50;;;12.63;;
22103;SDS011;11218;48.886;9.426;2023-04-25T10:16:57;55.45;;;13.20;;
22103;SDS011;11218;48.886;9.426;2023-04-25T10:19:28;53.78;;;12.70;;
22103;SDS011;11218;48.886;9.426;2023-04-25T10:21:58;39.83;;;11.15;;
22103;SDS011;11218;48.886;9.426;2023-04-25T10:24:35;50.20;;;13.73;;
22103;SDS011;11218;48.886;9.426;2023-04-25T10:27:04;44.20;;;13.13;;
22103;SDS011;11218;48.886;9.426;2023-04-25T10:29:33;40.10;;;10.70;;
22103;SDS011;11218;48.886;9.426;2023-04-25T10:32:02;34.53;;;10.48;;
22103;SDS011;11218;48.886;9.426;2023-04-25T10:34:40;44.85;;;11.75;;
22103;SDS011;11218;48.886;9.426;2023-04-25T10:37:09;35.97;;;9.40;;
22103;SDS011;11218;48.886;9.426;2023-04-25T10:39:41;43.08;;;10.48;;
22103;SDS011;11218;48.886;9.426;2023-04-25T10:42:10;36.83;;;10.55;;
22103;SDS011;11218;48.886;9.426;2023-04-25T10:44:41;41.15;;;10.15;;
22103;SDS011;11218;48.886;9.426;2023-04-25T10:47:34;46.60;;;10.70;;
22103;SDS011;11218;48.886;9.426;2023-04-25T10:50:13;50.28;;;10.82;;
22103;SDS011;11218;48.886;9.426;2023-04-25T10:52:51;51.60;;;11.38;;
22103;SDS011;11218;48.886;9.426;2023-04-25T10:55:51;52.55;;;12.38;;
22103;SDS011;11218;48.886;9.426;2023-04-25T10:58:24;40.88;;;10.43;;
22103;SDS011;11218;48.886;9.426;2023-04-25T11:00:57;53.03;;;12.85;;
22103;SDS011;11218;48.886;9.426;2023-04-25T11:03:28;52.72;;;12.57;;
22103;SDS011;11218;48.886;9.426;2023-04-25T11:05:57;56.45;;;13.25;;
22103;SDS011;11218;48.886;9.426;2023-04-25T11:08:31;48.33;;;11.85;;
22103;SDS011;11218;48.886;9.426;2023-04-25T11:11:18;32.40;;;10.00;;
22103;SDS011;11218;48.886;9.426;2023-04-25T11:13:51;45.90;;;12.02;;
22103;SDS011;11218;48.886;9.426;2023-04-25T11:16:19;49.38;;;11.90;;
22103;SDS011;11218;48.886;9.426;2023-04-25T11:19:11;54.42;;;13.32;;
22103;SDS011;11218;48.886;9.426;2023-04-25T11:21:39;51.42;;;12.65;;
22103;SDS011;11218;48.886;9.426;2023-04-25T11:24:07;34.10;;;9.90;;
22103;SDS011;11218;48.886;9.426;2023-04-25T11:26:37;50.67;;;13.15;;
22103;SDS011;11218;48.886;9.426;2023-04-25T11:29:05;53.22;;;13.20;;
22103;SDS011;11218;48.886;9.426;2023-04-25T11:31:34;52.80;;;12.38;;
22103;SDS011;11218;48.886;9.426;2023-04-25T11:34:02;48.63;;;11.07;;
22103;SDS011;11218;48.886;9.426;2023-04-25T11:36:32;51.53;;;11.52;;
22103;SDS011;11218;48.886;9.426;2023-04-25T11:39:00;48.17;;;12.30;;
22103;SDS011;11218;48.886;9.426;2023-04-25T11:41:31;52.97;;;12.40;;
22103;SDS011;11218;48.886;9.426;2023-04-25T11:44:01;43.95;;;10.90;;
22103;SDS011;11218;48.886;9.426;2023-04-25T11:46:31;40.85;;;11.02;;
22103;SDS011;11218;48.886;9.426;2023-04-25T11:49:02;53.05;;;12.48;;
22103;SDS011;11218;48.886;9.426;2023-04-25T11:51:37;50.42;;;11.43;;
22103;SDS011;11218;48.886;9.426;2023-04-25T11:54:07;43.08;;;10.38;;
22103;SDS011;11218;48.886;9.426;2023-04-25T11:56:36;46.88;;;10.80;;
22103;SDS011;11218;48.886;9.426;2023-04-25T11:59:21;42.38;;;9.43;;
22103;SDS011;11218;48.886;9.426;2023-04-25T12:01:59;42.17;;;9.77;;
22103;SDS011;11218;48.886;9.426;2023-04-25T12:04:30;46.00;;;9.90;;
22103;SDS011;11218;48.886;9.426;2023-04-25T12:07:00;41.78;;;10.50;;
22103;SDS011;11218;48.886;9.426;2023-04-25T12:09:29;34.97;;;9.38;;
22103;SDS011;11218;48.886;9.426;2023-04-25T12:12:01;36.22;;;8.98;;
22103;SDS011;11218;48.886;9.426;2023-04-25T12:14:32;30.55;;;9.18;;
22103;SDS011;11218;48.886;9.426;2023-04-25T12:17:02;37.35;;;9.18;;
22103;SDS011;11218;48.886;9.426;2023-04-25T12:19:35;39.72;;;9.55;;
22103;SDS011;11218;48.886;9.426;2023-04-25T12:22:19;31.67;;;8.27;;
22103;SDS011;11218;48.886;9.426;2023-04-25T12:24:48;33.28;;;8.10;;
22103;SDS011;11218;48.886;9.426;2023-04-25T12:27:17;41.88;;;9.55;;
22103;SDS011;11218;48.886;9.426;2023-04-25T12:29:52;34.10;;;8.55;;
22103;SDS011;11218;48.886;9.426;2023-04-25T12:32:22;32.08;;;8.50;;
22103;SDS011;11218;48.886;9.426;2023-04-25T12:34:51;31.40;;;8.35;;
22103;SDS011;11218;48.886;9.426;2023-04-25T12:37:23;30.20;;;8.05;;
22103;SDS011;11218;48.886;9.426;2023-04-25T12:39:53;24.20;;;7.40;;
22103;SDS011;11218;48.886;9.426;2023-04-25T12:42:22;32.25;;;7.90;;
22103;SDS011;11218;48.886;9.426;2023-04-25T12:44:52;38.50;;;9.20;;
22103;SDS011;11218;48.886;9.426;2023-04-25T12:47:21;28.88;;;7.65;;
22103;SDS011;11218;48.886;9.426;2023-04-25T12:49:53;30.60;;;8.38;;
22103;SDS011;11218;48.886;9.426;2023-04-25T12:52:22;37.92;;;9.32;;
22103;SDS011;11218;48.886;9.426;2023-04-25T12:55:02;36.75;;;9.40;;
22103;SDS011;11218;48.886;9.426;2023-04-25T12:57:33;29.42;;;8.70;;
22103;SDS011;11218;48.886;9.426;2023-04-25T13:00:04;31.70;;;8.77;;
22103;SDS011;11218;48.886;9.426;2023-04-25T13:02:38;46.92;;;11.70;;
22103;SDS011;11218;48.886;9.426;2023-04-25T13:05:07;32.60;;;10.30;;
22103;SDS011;11218;48.886;9.426;2023-04-25T13:07:39;37.65;;;11.10;;
22103;SDS011;11218;48.886;9.426;2023-04-25T13:10:08;32.25;;;9.48;;
22103;SDS011;11218;48.886;9.426;2023-04-25T13:12:36;40.58;;;10.77;;
22103;SDS011;11218;48.886;9.426;2023-04-25T13:15:07;46.75;;;12.27;;
22103;SDS011;11218;48.886;9.426;2023-04-25T13:17:37;52.42;;;12.32;;
22103;SDS011;11218;48.886;9.426;2023-04-25T13:20:07;49.80;;;12.55;;
22103;SDS011;11218;48.886;9.426;2023-04-25T13:22:37;50.83;;;13.02;;
22103;SDS011;11218;48.886;9.426;2023-04-25T13:25:09;38.97;;;10.63;;
22103;SDS011;11218;48.886;9.426;2023-04-25T13:28:31;34.20;;;10.27;;
22103;SDS011;11218;48.886;9.426;2023-04-25T13:31:01;35.17;;;9.73;;
22103;SDS011;11218;48.886;9.426;2023-04-25T13:33:29;42.72;;;12.40;;
22103;SDS011;11218;48.886;9.426;2023-04-25T13:36:00;53.22;;;13.43;;
22103;SDS011;11218;48.886;9.426;2023-04-25T13:38:29;50.25;;;12.70;;
22103;SDS011;11218;48.886;9.426;2023-04-25T13:40:57;51.90;;;13.35;;
22103;SDS011;11218;48.886;9.426;2023-04-25T13:43:27;49.10;;;13.10;;
22103;SDS011;11218;48.886;9.426;2023-04-25T13:45:56;54.58;;;14.35;;
22103;SDS011;11218;48.886;9.426;2023-04-25T13:48:26;51.28;;;13.63;;
22103;SDS011;11218;48.886;9.426;2023-04-25T13:50:54;29.90;;;9.85;;
22103;SDS011;11218;48.886;9.426;2023-04-25T13:53:22;38.33;;;11.88;;
22103;SDS011;11218;48.886;9.426;2023-04-25T13:55:52;30.65;;;10.68;;
22103;SDS011;11218;48.886;9.426;2023-04-25T13:58:20;47.45;;;13.55;;
22103;SDS011;11218;48.886;9.426;2023-04-25T14:00:48;52.60;;;13.57;;
22103;SDS011;11218;48.886;9.426;2023-04-25T14:03:17;33.42;;;12.63;;
22103;SDS011;11218;48.886;9.426;2023-04-25T14:05:47;49.38;;;14.27;;
22103;SDS011;11218;48.886;9.426;2023-04-25T14:08:16;61.03;;;17.58;;
22103;SDS011;11218;48.886;9.426;2023-04-25T14:10:44;54.13;;;15.68;;
22103;SDS011;11218;48.886;9.426;2023-04-25T14:13:15;44.88;;;14.95;;
22103;SDS011;11218;48.886;9.426;2023-04-25T14:15:43;48.45;;;15.10;;
22103;SDS011;11218;48.886;9.426;2023-04-25T14:18:12;38.35;;;14.25;;
22103;SDS011;11218;48.886;9.426;2023-04-25T14:20:41;51.35;;;15.77;;
22103;SDS011;11218;48.886;9.426;2023-04-25T14:23:11;41.33;;;14.18;;
22103;SDS011;11218;48.886;9.426;2023-04-25T14:25:40;44.45;;;14.32;;
22103;SDS011;11218;48.886;9.426;2023-04-25T14:28:10;45.05;;;15.02;;
22103;SDS011;11218;48.886;9.426;2023-04-25T14:30:40;52.03;;;15.65;;
22103;SDS011;11218;48.886;9.426;2023-04-25T14:33:09;44.85;;;14.68;;
22103;SDS011;11218;48.886;9.426;2023-04-25T14:35:37;45.85;;;13.80;;
22103;SDS011;11218;48.886;9.426;2023-04-25T14:38:10;41.83;;;13.65;;
22103;SDS011;11218;48.886;9.426;2023-04-25T14:40:40;51.58;;;14.50;;
22103;SDS011;11218;48.886;9.426;2023-04-25T14:43:08;34.00;;;11.98;;
22103;SDS011;11218;48.886;9.426;2023-04-25T14:45:37;48.97;;;14.93;;
22103;SDS011;11218;48.886;9.426;2023-04-25T14:48:05;36.40;;;13.38;;